createdAt,value
2018-03-04T00:01:15.209Z,40.73
2018-03-04T00:03:41.178Z,40.80
2018-03-04T00:06:07.123Z,40.78
2018-03-04T00:08:33.070Z,40.71
2018-03-04T00:10:59.008Z,40.85
2018-03-04T00:13:24.974Z,40.53
2018-03-04T00:15:50.946Z,40.71
2018-03-04T00:18:16.902Z,40.76
2018-03-04T00:20:42.869Z,40.83
2018-03-04T00:23:08.855Z,40.64
2018-03-04T00:25:34.823Z,40.64
2018-03-04T00:28:00.774Z,40.71
2018-03-04T00:30:26.726Z,40.67
2018-03-04T00:32:52.741Z,40.61
2018-03-04T00:35:18.721Z,40.83
2018-03-04T00:37:44.674Z,40.68
2018-03-04T00:40:10.614Z,40.78
2018-03-04T00:42:36.563Z,40.74
2018-03-04T00:45:02.532Z,40.91
2018-03-04T00:47:28.540Z,40.96
2018-03-04T00:49:54.506Z,40.93
2018-03-04T00:52:20.447Z,40.74
2018-03-04T00:54:46.414Z,41.00
2018-03-04T00:57:12.354Z,40.80
2018-03-04T00:59:38.306Z,41.03
2018-03-04T01:02:04.365Z,41.13
2018-03-04T01:04:30.302Z,40.90
2018-03-04T01:06:56.246Z,40.94
2018-03-04T01:09:22.194Z,40.91
2018-03-04T01:11:48.170Z,40.94
2018-03-04T01:14:14.177Z,40.98
2018-03-04T01:16:40.126Z,41.02
2018-03-04T01:19:06.088Z,40.79
2018-03-04T01:21:32.050Z,40.77
2018-03-04T01:23:58.001Z,40.95
2018-03-04T01:26:23.967Z,40.92
2018-03-04T01:28:49.907Z,40.92
2018-03-04T01:31:15.857Z,40.94
2018-03-04T01:33:41.818Z,41.08
2018-03-04T01:36:07.762Z,40.81
2018-03-04T01:38:33.772Z,41.16
2018-03-04T01:40:59.719Z,40.93
2018-03-04T01:43:25.679Z,41.13
2018-03-04T01:45:51.644Z,40.96
2018-03-04T01:48:17.578Z,41.00
2018-03-04T01:50:43.542Z,41.01
2018-03-04T01:53:09.630Z,41.11
2018-03-04T01:55:35.594Z,41.01
2018-03-04T01:58:01.548Z,40.91
2018-03-04T02:00:27.507Z,41.01
2018-03-04T02:02:53.445Z,40.74
2018-03-04T02:05:19.413Z,40.90
2018-03-04T02:07:45.371Z,41.00
2018-03-04T02:10:11.331Z,40.93
2018-03-04T02:12:37.289Z,40.93
2018-03-04T02:15:03.243Z,40.88
2018-03-04T02:17:29.198Z,40.96
2018-03-04T02:19:55.139Z,41.02
2018-03-04T02:22:21.085Z,40.96
2018-03-04T02:24:47.026Z,40.99
2018-03-04T02:27:12.969Z,41.10
2018-03-04T02:29:38.909Z,41.05
2018-03-04T02:32:04.862Z,40.97
2018-03-04T02:34:30.811Z,40.91
2018-03-04T02:36:56.739Z,41.05
2018-03-04T02:39:22.692Z,41.00
2018-03-04T02:41:48.655Z,40.95
2018-03-04T02:44:14.613Z,41.09
2018-03-04T02:46:40.552Z,41.16
2018-03-04T02:49:06.504Z,40.99
2018-03-04T02:51:32.446Z,40.75
2018-03-04T02:53:58.398Z,40.94
2018-03-04T02:56:24.341Z,40.91
2018-03-04T02:58:50.286Z,40.97
2018-03-04T03:01:16.225Z,40.89
2018-03-04T03:03:42.173Z,40.84
2018-03-04T03:06:08.123Z,40.79
2018-03-04T03:08:34.067Z,40.83
2018-03-04T03:11:00.002Z,40.95
2018-03-04T03:13:25.945Z,41.02
2018-03-04T03:15:51.893Z,40.88
2018-03-04T03:18:17.838Z,40.95
2018-03-04T03:20:43.773Z,41.05
2018-03-04T03:23:09.750Z,41.08
2018-03-04T03:25:35.685Z,41.01
2018-03-04T03:28:01.630Z,40.73
2018-03-04T03:30:28.558Z,40.97
2018-03-04T03:32:54.526Z,40.94
2018-03-04T03:35:20.467Z,40.83
2018-03-04T03:37:46.419Z,40.91
2018-03-04T03:40:12.361Z,40.88
2018-03-04T03:42:38.302Z,41.11
2018-03-04T03:45:04.349Z,40.97
2018-03-04T03:47:30.305Z,41.01
2018-03-04T03:49:56.297Z,41.02
2018-03-04T03:52:22.263Z,40.89
2018-03-04T03:54:48.211Z,40.94
2018-03-04T03:57:14.171Z,40.75
2018-03-04T03:59:40.213Z,40.86
2018-03-04T04:02:06.174Z,40.94
2018-03-04T04:04:32.111Z,40.84
2018-03-04T04:06:58.051Z,40.78
2018-03-04T04:09:24.006Z,40.91
2018-03-04T04:11:49.948Z,40.80
2018-03-04T04:14:15.917Z,40.81
2018-03-04T04:16:41.871Z,40.91
2018-03-04T04:19:07.848Z,40.90
2018-03-04T04:21:33.797Z,40.81
2018-03-04T04:23:59.730Z,40.77
2018-03-04T04:26:25.661Z,40.62
2018-03-04T04:28:51.606Z,40.71
2018-03-04T04:31:17.588Z,40.71
2018-03-04T04:33:43.517Z,40.89
2018-03-04T04:36:09.469Z,40.71
2018-03-04T04:38:35.498Z,40.89
2018-03-04T04:41:02.346Z,40.76
2018-03-04T04:43:28.287Z,40.60
2018-03-04T04:45:54.230Z,40.97
2018-03-04T04:48:20.186Z,40.66
2018-03-04T04:50:46.134Z,40.93
2018-03-04T04:53:12.106Z,40.87
2018-03-04T04:55:38.051Z,40.83
2018-03-04T04:58:04.005Z,40.68
2018-03-04T05:00:29.952Z,40.64
2018-03-04T05:02:55.892Z,40.65
2018-03-04T05:05:21.835Z,40.84
2018-03-04T05:07:47.774Z,40.72
2018-03-04T05:10:13.735Z,40.82
2018-03-04T05:12:39.682Z,40.79
2018-03-04T05:15:05.630Z,40.76
2018-03-04T05:17:31.574Z,40.92
2018-03-04T05:19:57.531Z,40.62
2018-03-04T05:22:23.481Z,40.65
2018-03-04T05:24:49.443Z,40.71
2018-03-04T05:27:15.381Z,40.66
2018-03-04T05:29:41.323Z,40.52
2018-03-04T05:32:07.281Z,40.49
2018-03-04T05:34:33.217Z,40.90
2018-03-04T05:36:59.165Z,40.61
2018-03-04T05:39:25.110Z,40.80
2018-03-04T05:41:51.053Z,40.67
2018-03-04T05:44:16.992Z,40.78
2018-03-04T05:46:42.958Z,40.84
2018-03-04T05:49:08.915Z,40.79
2018-03-04T05:51:34.847Z,40.89
2018-03-04T05:54:00.790Z,40.59
2018-03-04T05:56:26.734Z,40.59
2018-03-04T05:58:52.665Z,40.38
2018-03-04T06:01:18.609Z,40.57
2018-03-04T06:03:44.558Z,40.65
2018-03-04T06:06:10.524Z,40.57
2018-03-04T06:08:36.497Z,40.65
2018-03-04T06:11:02.507Z,40.50
2018-03-04T06:13:28.398Z,40.11
2018-03-04T06:15:54.358Z,40.05
2018-03-04T06:18:20.298Z,39.85
2018-03-04T06:20:46.245Z,39.72
2018-03-04T06:23:12.208Z,39.76
2018-03-04T06:25:38.153Z,39.76
2018-03-04T06:28:04.102Z,39.87
2018-03-04T06:30:30.058Z,39.52
2018-03-04T06:32:56.000Z,39.59
2018-03-04T06:35:21.949Z,39.93
2018-03-04T06:37:47.888Z,39.76
2018-03-04T06:40:13.833Z,39.80
2018-03-04T06:42:39.799Z,39.94
2018-03-04T06:45:05.771Z,40.08
2018-03-04T06:47:31.717Z,39.99
2018-03-04T06:49:57.709Z,40.28
2018-03-04T06:52:23.593Z,40.30
2018-03-04T06:54:49.534Z,41.38
2018-03-04T06:57:15.487Z,40.75
2018-03-04T06:59:41.422Z,40.48
2018-03-04T07:02:07.369Z,40.60
2018-03-04T07:04:33.311Z,40.59
2018-03-04T07:06:59.275Z,40.61
2018-03-04T07:09:25.220Z,40.52
2018-03-04T07:11:51.189Z,40.52
2018-03-04T07:14:17.146Z,40.75
2018-03-04T07:16:43.128Z,40.67
2018-03-04T07:19:09.076Z,40.61
2018-03-04T07:21:35.036Z,40.73
2018-03-04T07:24:00.978Z,40.70
2018-03-04T07:26:26.939Z,40.89
2018-03-04T07:28:52.895Z,40.64
2018-03-04T07:31:18.845Z,41.03
2018-03-04T07:33:44.790Z,40.96
2018-03-04T07:36:10.739Z,41.00
2018-03-04T07:38:36.773Z,41.01
2018-03-04T07:41:02.746Z,41.17
2018-03-04T07:43:28.687Z,41.04
2018-03-04T07:45:54.749Z,41.16
2018-03-04T07:48:20.753Z,41.11
2018-03-04T07:50:46.702Z,41.05
2018-03-04T07:53:12.793Z,40.92
2018-03-04T07:55:38.748Z,41.04
2018-03-04T07:58:04.710Z,41.18
2018-03-04T08:00:30.649Z,41.00
2018-03-04T08:02:56.609Z,41.00
2018-03-04T08:05:22.650Z,40.79
2018-03-04T08:07:48.610Z,41.04
2018-03-04T08:10:14.558Z,41.08
2018-03-04T08:12:40.505Z,41.13
2018-03-04T08:15:06.481Z,41.14
2018-03-04T08:17:32.426Z,41.31
2018-03-04T08:19:58.389Z,41.23
2018-03-04T08:22:24.340Z,41.26
2018-03-04T08:24:50.277Z,41.34
2018-03-04T08:27:16.258Z,41.31
2018-03-04T08:29:42.226Z,41.35
2018-03-04T08:32:08.250Z,41.45
2018-03-04T08:34:34.227Z,41.63
2018-03-04T08:37:00.205Z,41.71
2018-03-04T08:39:26.233Z,41.58
2018-03-04T08:41:52.191Z,41.48
2018-03-04T08:44:18.126Z,41.43
2018-03-04T08:46:44.074Z,41.48
2018-03-04T08:49:10.026Z,41.64
2018-03-04T08:51:35.993Z,41.77
2018-03-04T08:54:01.943Z,42.04
2018-03-04T08:56:27.882Z,42.08
2018-03-04T08:58:53.822Z,42.26
2018-03-04T09:01:19.769Z,42.04
2018-03-04T09:03:45.826Z,41.91
2018-03-04T09:06:11.774Z,42.09
2018-03-04T09:08:37.752Z,42.34
2018-03-04T09:11:03.657Z,42.28
2018-03-04T09:13:29.618Z,42.36
2018-03-04T09:15:55.570Z,42.43
2018-03-04T09:18:21.538Z,42.18
2018-03-04T09:20:47.488Z,41.96
2018-03-04T09:23:13.541Z,42.23
2018-03-04T09:25:39.511Z,42.39
2018-03-04T09:28:05.437Z,42.21
2018-03-04T09:30:31.378Z,42.04
2018-03-04T09:32:57.350Z,42.32
2018-03-04T09:35:23.382Z,42.50
2018-03-04T09:37:49.337Z,42.44
2018-03-04T09:40:15.274Z,42.49
2018-03-04T09:42:41.250Z,42.55
2018-03-04T09:45:07.220Z,42.61
2018-03-04T09:47:33.193Z,42.76
2018-03-04T09:49:59.239Z,42.78
2018-03-04T09:52:25.213Z,42.76
2018-03-04T09:54:51.165Z,42.85
2018-03-04T09:57:17.255Z,42.81
2018-03-04T09:59:43.221Z,42.44
2018-03-04T10:02:09.192Z,42.21
2018-03-04T10:04:35.138Z,42.32
2018-03-04T10:07:01.103Z,42.36
2018-03-04T10:09:27.093Z,42.24
2018-03-04T10:11:53.057Z,42.09
2018-03-04T10:14:19.000Z,42.33
2018-03-04T10:16:44.950Z,42.01
2018-03-04T10:19:10.945Z,42.04
2018-03-04T10:21:36.919Z,42.26
2018-03-04T10:24:02.877Z,42.30
2018-03-04T10:26:28.849Z,42.42
2018-03-04T10:28:54.818Z,42.34
2018-03-04T10:31:20.794Z,42.94
2018-03-04T10:33:46.780Z,43.13
2018-03-04T10:36:12.769Z,43.56
2018-03-04T10:38:38.730Z,43.35
2018-03-04T10:41:04.672Z,42.96
2018-03-04T10:43:30.670Z,42.89
2018-03-04T10:45:56.626Z,42.57
2018-03-04T10:48:22.622Z,42.58
2018-03-04T10:50:48.581Z,42.55
2018-03-04T10:53:14.560Z,42.41
2018-03-04T10:55:40.516Z,42.41
2018-03-04T10:58:06.486Z,42.37
2018-03-04T11:00:32.431Z,42.12
2018-03-04T11:02:58.375Z,42.44
2018-03-04T11:05:24.418Z,42.37
2018-03-04T11:07:50.368Z,42.38
2018-03-04T11:10:16.383Z,42.38
2018-03-04T11:12:42.406Z,42.50
2018-03-04T11:15:08.349Z,42.38
2018-03-04T11:17:34.299Z,42.28
2018-03-04T11:20:00.273Z,42.37
2018-03-04T11:22:26.326Z,42.26
2018-03-04T11:24:52.278Z,42.38
2018-03-04T11:27:18.315Z,42.07
2018-03-04T11:29:44.303Z,42.10
2018-03-04T11:32:10.291Z,42.17
2018-03-04T11:34:36.266Z,42.19
2018-03-04T11:37:02.311Z,42.19
2018-03-04T11:39:28.257Z,42.07
2018-03-04T11:41:54.205Z,42.09
2018-03-04T11:44:20.186Z,41.84
2018-03-04T11:46:46.138Z,42.02
2018-03-04T11:49:12.086Z,41.99
2018-03-04T11:51:38.031Z,41.92
2018-03-04T11:54:04.035Z,41.95
2018-03-04T11:56:30.005Z,42.14
2018-03-04T11:58:56.042Z,42.14
2018-03-04T12:01:22.009Z,42.13
2018-03-04T12:03:47.978Z,42.21
2018-03-04T12:06:13.954Z,42.14
2018-03-04T12:08:39.902Z,42.15
2018-03-04T12:11:05.918Z,42.29
2018-03-04T12:13:31.910Z,42.25
2018-03-04T12:15:57.854Z,42.14
2018-03-04T12:18:23.870Z,41.91
2018-03-04T12:20:49.861Z,41.79
2018-03-04T12:23:15.864Z,41.81
2018-03-04T12:25:41.848Z,41.90
2018-03-04T12:28:07.909Z,41.87
2018-03-04T12:30:33.841Z,41.56
2018-03-04T12:32:59.837Z,41.57
2018-03-04T12:35:25.883Z,41.75
2018-03-04T12:37:51.942Z,41.63
2018-03-04T12:40:17.902Z,41.57
2018-03-04T12:42:43.872Z,41.74
2018-03-04T12:45:09.837Z,41.93
2018-03-04T12:47:35.802Z,41.88
2018-03-04T12:50:01.781Z,41.94
2018-03-04T12:52:27.737Z,41.84
2018-03-04T12:54:53.686Z,41.97
2018-03-04T12:57:19.729Z,41.92
2018-03-04T12:59:45.699Z,42.03
2018-03-04T13:02:11.639Z,41.91
2018-03-04T13:04:37.591Z,41.83
2018-03-04T13:07:03.650Z,41.96
2018-03-04T13:09:29.624Z,42.11
2018-03-04T13:11:55.585Z,42.08
2018-03-04T13:14:21.627Z,42.05
2018-03-04T13:16:47.581Z,42.11
2018-03-04T13:19:13.541Z,41.96
2018-03-04T13:21:39.490Z,41.93
2018-03-04T13:24:05.427Z,41.77
2018-03-04T13:26:31.390Z,41.69
2018-03-04T13:28:57.342Z,41.79
2018-03-04T13:31:23.301Z,41.77
2018-03-04T13:33:49.268Z,41.74
2018-03-04T13:36:15.285Z,41.62
2018-03-04T13:38:41.199Z,41.63
2018-03-04T13:41:07.147Z,41.65
2018-03-04T13:43:33.102Z,41.68
2018-03-04T13:45:59.139Z,41.78
2018-03-04T13:48:25.086Z,41.71
2018-03-04T13:50:51.026Z,41.92
2018-03-04T13:53:16.985Z,42.41
2018-03-04T13:55:42.925Z,42.22
2018-03-04T13:58:08.870Z,42.36
2018-03-04T14:00:34.858Z,42.46
2018-03-04T14:03:00.921Z,42.42
2018-03-04T14:05:26.889Z,42.43
2018-03-04T14:07:52.834Z,42.52
2018-03-04T14:10:18.810Z,42.53
2018-03-04T14:12:44.762Z,42.49
2018-03-04T14:15:10.737Z,42.57
2018-03-04T14:17:36.672Z,42.64
2018-03-04T14:20:02.618Z,42.66
2018-03-04T14:22:28.556Z,42.64
2018-03-04T14:24:54.515Z,42.56
2018-03-04T14:27:20.517Z,43.32
2018-03-04T14:29:46.478Z,43.04
2018-03-04T14:32:12.441Z,43.02
2018-03-04T14:34:38.408Z,43.00
2018-03-04T14:37:04.365Z,43.10
2018-03-04T14:39:30.345Z,43.09
2018-03-04T14:41:56.304Z,43.22
2018-03-04T14:44:22.265Z,43.19
2018-03-04T14:46:48.213Z,43.26
2018-03-04T14:49:14.210Z,43.31
2018-03-04T14:51:40.149Z,43.31
2018-03-04T14:54:06.114Z,43.57
2018-03-04T14:56:32.050Z,43.41
2018-03-04T14:58:58.008Z,43.50
2018-03-04T15:01:23.980Z,43.54
2018-03-04T15:03:49.951Z,43.41
2018-03-04T15:06:15.943Z,43.24
2018-03-04T15:08:41.896Z,43.26
2018-03-04T15:11:07.838Z,43.33
2018-03-04T15:13:33.774Z,43.31
2018-03-04T15:15:59.722Z,43.28
2018-03-04T15:18:25.695Z,43.35
2018-03-04T15:20:51.649Z,43.52
2018-03-04T15:23:17.653Z,43.59
2018-03-04T15:25:43.668Z,43.61
2018-03-04T15:28:09.613Z,43.34
2018-03-04T15:30:35.586Z,43.46
2018-03-04T15:33:01.543Z,43.54
2018-03-04T15:35:27.516Z,43.49
2018-03-04T15:37:53.471Z,43.57
2018-03-04T15:40:19.427Z,43.60
2018-03-04T15:42:45.418Z,43.50
2018-03-04T15:45:11.496Z,43.66
2018-03-04T15:47:37.459Z,43.63
2018-03-04T15:50:03.423Z,43.58
2018-03-04T15:52:29.407Z,43.59
2018-03-04T15:54:55.361Z,43.62
2018-03-04T15:57:21.342Z,43.70
2018-03-04T15:59:47.392Z,43.73
2018-03-04T16:02:13.394Z,43.77
2018-03-04T16:04:39.302Z,43.87
2018-03-04T16:07:05.300Z,43.97
2018-03-04T16:09:31.248Z,43.86
2018-03-04T16:11:57.193Z,43.70
2018-03-04T16:14:23.225Z,43.93
2018-03-04T16:16:49.181Z,43.87
2018-03-04T16:19:15.156Z,43.84
2018-03-04T16:21:41.196Z,43.81
2018-03-04T16:24:07.158Z,43.76
2018-03-04T16:26:33.147Z,43.83
2018-03-04T16:28:59.124Z,43.88
2018-03-04T16:31:25.114Z,43.98
2018-03-04T16:33:51.061Z,43.75
2018-03-04T16:36:16.993Z,43.83
2018-03-04T16:38:42.934Z,43.81
2018-03-04T16:41:08.910Z,43.72
2018-03-04T16:43:34.866Z,43.70
2018-03-04T16:46:00.809Z,43.98
2018-03-04T16:48:26.768Z,43.95
2018-03-04T16:50:52.847Z,44.05
2018-03-04T16:53:18.831Z,44.19
2018-03-04T16:55:44.800Z,44.04
2018-03-04T16:58:10.768Z,44.08
2018-03-04T17:00:36.719Z,44.08
2018-03-04T17:03:02.659Z,44.13
2018-03-04T17:05:28.621Z,44.14
2018-03-04T17:07:54.643Z,43.97
2018-03-04T17:10:20.607Z,44.22
2018-03-04T17:12:46.573Z,44.41
2018-03-04T17:15:12.548Z,44.45
2018-03-04T17:17:38.510Z,44.29
2018-03-04T17:20:04.489Z,44.58
2018-03-04T17:22:30.529Z,44.67
2018-03-04T17:24:56.507Z,44.75
2018-03-04T17:27:22.468Z,44.53
2018-03-04T17:29:48.434Z,44.62
2018-03-04T17:32:14.388Z,44.32
2018-03-04T17:34:40.393Z,44.52
2018-03-04T17:37:06.359Z,44.58
2018-03-04T17:39:32.338Z,44.50
2018-03-04T17:41:58.329Z,44.43
2018-03-04T17:44:24.322Z,44.40
2018-03-04T17:46:50.278Z,44.47
2018-03-04T17:49:16.258Z,44.60
2018-03-04T17:51:42.254Z,44.53
2018-03-04T17:54:08.211Z,44.70
2018-03-04T17:56:34.206Z,44.66
2018-03-04T17:59:00.177Z,44.63
2018-03-04T18:01:26.145Z,44.61
2018-03-04T18:03:52.110Z,44.50
2018-03-04T18:06:18.062Z,44.57
2018-03-04T18:08:44.067Z,44.23
2018-03-04T18:11:10.014Z,44.46
2018-03-04T18:13:35.983Z,44.70
2018-03-04T18:16:01.942Z,44.69
2018-03-04T18:18:27.951Z,44.65
2018-03-04T18:20:53.934Z,44.51
2018-03-04T18:23:19.990Z,44.49
2018-03-04T18:25:45.991Z,44.54
2018-03-04T18:28:11.951Z,44.52
2018-03-04T18:30:37.926Z,44.53
2018-03-04T18:33:03.894Z,44.68
2018-03-04T18:35:29.902Z,44.54
2018-03-04T18:37:55.889Z,44.14
2018-03-04T18:40:21.847Z,44.08
2018-03-04T18:42:47.808Z,44.11
2018-03-04T18:45:13.850Z,44.28
2018-03-04T18:47:39.866Z,44.49
2018-03-04T18:50:05.818Z,44.40
2018-03-04T18:52:31.776Z,44.54
2018-03-04T18:54:57.758Z,44.60
2018-03-04T18:57:23.727Z,44.63
2018-03-04T18:59:49.682Z,44.62
2018-03-04T19:02:15.672Z,44.58
2018-03-04T19:04:41.697Z,44.68
2018-03-04T19:07:07.671Z,44.73
2018-03-04T19:09:33.652Z,44.70
2018-03-04T19:11:59.618Z,44.65
2018-03-04T19:14:25.617Z,44.94
2018-03-04T19:16:51.578Z,44.97
2018-03-04T19:19:17.546Z,44.93
2018-03-04T19:21:43.515Z,44.73
2018-03-04T19:24:09.495Z,44.76
2018-03-04T19:26:35.485Z,44.80
2018-03-04T19:29:01.503Z,44.90
2018-03-04T19:31:27.480Z,44.83
2018-03-04T19:33:53.435Z,44.84
2018-03-04T19:36:19.422Z,44.79
2018-03-04T19:38:45.372Z,44.96
2018-03-04T19:41:11.368Z,44.91
2018-03-04T19:43:37.325Z,44.82
2018-03-04T19:46:03.289Z,44.92
2018-03-04T19:48:29.247Z,44.83
2018-03-04T19:50:55.193Z,44.92
2018-03-04T19:53:21.187Z,44.93
2018-03-04T19:55:47.155Z,44.78
2018-03-04T19:58:13.111Z,44.79
2018-03-04T20:00:39.123Z,44.69
2018-03-04T20:03:05.098Z,44.68
2018-03-04T20:05:31.050Z,44.58
2018-03-04T20:07:57.081Z,44.53
2018-03-04T20:10:23.031Z,44.58
2018-03-04T20:12:49.004Z,44.57
2018-03-04T20:15:15.028Z,44.53
2018-03-04T20:17:40.981Z,44.58
2018-03-04T20:20:06.929Z,44.50
2018-03-04T20:22:32.886Z,44.45
2018-03-04T20:24:58.838Z,44.46
2018-03-04T20:27:24.879Z,44.63
2018-03-04T20:29:50.831Z,44.82
2018-03-04T20:32:16.799Z,45.08
2018-03-04T20:34:42.825Z,45.01
2018-03-04T20:37:08.782Z,44.99
2018-03-04T20:39:34.749Z,44.93
2018-03-04T20:42:00.691Z,44.90
2018-03-04T20:44:26.664Z,44.88
2018-03-04T20:46:52.615Z,44.88
2018-03-04T20:49:18.593Z,44.76
2018-03-04T20:51:44.573Z,44.75
2018-03-04T20:54:10.516Z,44.81
2018-03-04T20:56:36.497Z,44.73
2018-03-04T20:59:02.466Z,44.69
2018-03-04T21:01:28.780Z,44.73
2018-03-04T21:03:54.725Z,45.04
2018-03-04T21:06:20.786Z,44.96
2018-03-04T21:08:46.748Z,45.07
2018-03-04T21:11:12.745Z,44.91
2018-03-04T21:13:38.697Z,44.80
2018-03-04T21:16:04.651Z,44.78
2018-03-04T21:18:30.625Z,44.81
2018-03-04T21:20:56.558Z,44.83
2018-03-04T21:23:22.648Z,44.79
2018-03-04T21:25:48.551Z,44.78
2018-03-04T21:28:14.531Z,44.79
2018-03-04T21:30:40.514Z,44.79
2018-03-04T21:33:06.481Z,44.95
2018-03-04T21:35:32.442Z,44.99
2018-03-04T21:37:58.402Z,44.94
2018-03-04T21:40:24.360Z,45.10
2018-03-04T21:42:50.300Z,45.14
2018-03-04T21:45:16.308Z,45.10
2018-03-04T21:47:42.250Z,45.14
2018-03-04T21:50:08.233Z,45.16
2018-03-04T21:52:34.189Z,45.28
2018-03-04T21:55:00.151Z,45.35
2018-03-04T21:57:26.090Z,45.38
2018-03-04T21:59:52.033Z,45.45
2018-03-04T22:02:17.997Z,45.49
2018-03-04T22:04:43.936Z,45.45
2018-03-04T22:07:10.032Z,45.41
2018-03-04T22:09:36.023Z,45.49
2018-03-04T22:12:01.986Z,45.39
2018-03-04T22:14:27.975Z,45.46
2018-03-04T22:16:53.932Z,45.57
2018-03-04T22:19:19.930Z,45.60
2018-03-04T22:21:45.877Z,45.71
2018-03-04T22:24:11.831Z,45.71
2018-03-04T22:26:37.853Z,45.69
2018-03-04T22:29:03.830Z,45.63
2018-03-04T22:31:29.787Z,45.68
2018-03-04T22:33:55.731Z,45.67
2018-03-04T22:36:21.674Z,45.65
2018-03-04T22:38:47.633Z,45.78
2018-03-04T22:41:13.607Z,45.80
2018-03-04T22:43:39.547Z,45.76
2018-03-04T22:46:05.481Z,45.66
2018-03-04T22:48:31.436Z,45.75
2018-03-04T22:50:57.381Z,45.72
2018-03-04T22:53:23.342Z,45.70
2018-03-04T22:55:49.420Z,45.65
2018-03-04T22:58:15.370Z,45.76
2018-03-04T23:00:41.309Z,45.71
2018-03-04T23:03:07.325Z,45.78
2018-03-04T23:05:33.275Z,45.69
2018-03-04T23:07:59.213Z,45.84
2018-03-04T23:10:25.179Z,45.85
2018-03-04T23:12:51.166Z,45.85
2018-03-04T23:15:18.326Z,45.75
2018-03-04T23:17:44.303Z,45.78
2018-03-04T23:20:10.255Z,45.82
2018-03-04T23:22:36.203Z,45.80
2018-03-04T23:25:02.548Z,45.66
2018-03-04T23:27:28.585Z,45.75
2018-03-04T23:29:54.550Z,45.73
2018-03-04T23:32:21.503Z,45.89
2018-03-04T23:34:47.465Z,45.82
2018-03-04T23:37:13.464Z,45.70
2018-03-04T23:39:39.459Z,45.75
2018-03-04T23:42:05.416Z,45.83
2018-03-04T23:44:31.406Z,45.95
2018-03-04T23:46:57.368Z,45.95
2018-03-04T23:49:23.310Z,45.86
2018-03-04T23:51:49.305Z,45.81
2018-03-04T23:54:15.249Z,45.67
2018-03-04T23:56:41.202Z,46.03
2018-03-04T23:59:07.155Z,46.11
